sensor_id;sensor_type;location;lat;lon;timestamp;pressure;altitude;pressure_sealevel;temperature;humidity
70555;BME280;58104;52.744;15.242;2023-02-19T00:00:15;100581.28;;;18.16;44.95
70555;BME280;58104;52.744;15.242;2023-02-19T00:02:41;100581.58;;;18.15;44.90
70555;BME280;58104;52.744;15.242;2023-02-19T00:05:05;100579.57;;;18.17;44.95
70555;BME280;58104;52.744;15.242;2023-02-19T00:07:31;100582.07;;;18.13;45.09
70555;BME280;58104;52.744;15.242;2023-02-19T00:09:56;100583.50;;;18.11;45.38
70555;BME280;58104;52.744;15.242;2023-02-19T00:12:21;100582.69;;;18.11;45.39
70555;BME280;58104;52.744;15.242;2023-02-19T00:14:47;100583.34;;;18.17;45.42
70555;BME280;58104;52.744;15.242;2023-02-19T00:17:12;100579.68;;;18.15;45.61
70555;BME280;58104;52.744;15.242;2023-02-19T00:19:38;100574.12;;;18.19;45.63
70555;BME280;58104;52.744;15.242;2023-02-19T00:22:03;100578.82;;;18.16;45.75
70555;BME280;58104;52.744;15.242;2023-02-19T00:24:29;100583.32;;;18.23;45.87
70555;BME280;58104;52.744;15.242;2023-02-19T00:26:54;100584.04;;;18.18;45.95
70555;BME280;58104;52.744;15.242;2023-02-19T00:29:20;100589.69;;;18.19;46.13
70555;BME280;58104;52.744;15.242;2023-02-19T00:31:45;100584.03;;;18.25;45.95
70555;BME280;58104;52.744;15.242;2023-02-19T00:34:12;100589.75;;;18.19;46.07
70555;BME280;58104;52.744;15.242;2023-02-19T00:36:38;100593.40;;;18.17;46.22
70555;BME280;58104;52.744;15.242;2023-02-19T00:39:01;100591.79;;;18.25;46.05
70555;BME280;58104;52.744;15.242;2023-02-19T00:41:27;100591.65;;;18.28;45.92
70555;BME280;58104;52.744;15.242;2023-02-19T00:43:54;100588.61;;;18.34;45.78
70555;BME280;58104;52.744;15.242;2023-02-19T00:46:20;100591.83;;;18.34;45.89
70555;BME280;58104;52.744;15.242;2023-02-19T00:48:43;100593.11;;;18.25;45.96
70555;BME280;58104;52.744;15.242;2023-02-19T00:51:09;100596.02;;;18.30;45.92
70555;BME280;58104;52.744;15.242;2023-02-19T00:53:34;100593.82;;;18.35;45.76
70555;BME280;58104;52.744;15.242;2023-02-19T00:55:59;100592.72;;;18.37;45.71
70555;BME280;58104;52.744;15.242;2023-02-19T00:58:25;100593.93;;;18.34;45.62
70555;BME280;58104;52.744;15.242;2023-02-19T01:00:50;100592.04;;;18.38;45.64
70555;BME280;58104;52.744;15.242;2023-02-19T01:03:15;100582.08;;;18.42;45.55
70555;BME280;58104;52.744;15.242;2023-02-19T01:05:41;100572.84;;;18.37;45.66
70555;BME280;58104;52.744;15.242;2023-02-19T01:08:06;100569.35;;;18.37;45.61
70555;BME280;58104;52.744;15.242;2023-02-19T01:10:32;100561.80;;;18.36;45.80
70555;BME280;58104;52.744;15.242;2023-02-19T01:12:57;100562.19;;;18.35;45.83
70555;BME280;58104;52.744;15.242;2023-02-19T01:15:22;100562.44;;;18.31;45.84
70555;BME280;58104;52.744;15.242;2023-02-19T01:17:48;100558.06;;;18.21;46.05
70555;BME280;58104;52.744;15.242;2023-02-19T01:20:13;100561.29;;;18.24;46.01
70555;BME280;58104;52.744;15.242;2023-02-19T01:25:05;100559.93;;;18.23;46.17
70555;BME280;58104;52.744;15.242;2023-02-19T01:27:30;100560.70;;;18.25;46.12
70555;BME280;58104;52.744;15.242;2023-02-19T01:29:55;100552.02;;;18.22;46.16
70555;BME280;58104;52.744;15.242;2023-02-19T01:32:20;100553.89;;;18.27;46.06
70555;BME280;58104;52.744;15.242;2023-02-19T01:34:46;100547.68;;;18.26;46.28
70555;BME280;58104;52.744;15.242;2023-02-19T01:37:11;100541.88;;;18.33;46.01
70555;BME280;58104;52.744;15.242;2023-02-19T01:39:37;100537.75;;;18.32;45.89
70555;BME280;58104;52.744;15.242;2023-02-19T01:42:03;100532.48;;;18.40;45.79
70555;BME280;58104;52.744;15.242;2023-02-19T01:46:53;100529.24;;;18.37;45.77
70555;BME280;58104;52.744;15.242;2023-02-19T01:49:22;100527.15;;;18.45;45.59
70555;BME280;58104;52.744;15.242;2023-02-19T01:51:47;100527.70;;;18.50;45.40
70555;BME280;58104;52.744;15.242;2023-02-19T01:54:12;100525.02;;;18.34;45.66
70555;BME280;58104;52.744;15.242;2023-02-19T01:56:36;100524.56;;;18.43;45.57
70555;BME280;58104;52.744;15.242;2023-02-19T01:59:01;100521.76;;;18.40;45.47
70555;BME280;58104;52.744;15.242;2023-02-19T02:01:25;100519.51;;;18.48;45.55
70555;BME280;58104;52.744;15.242;2023-02-19T02:03:51;100523.23;;;18.36;46.03
70555;BME280;58104;52.744;15.242;2023-02-19T02:06:21;100524.88;;;18.43;45.95
70555;BME280;58104;52.744;15.242;2023-02-19T02:08:42;100516.87;;;18.36;46.04
70555;BME280;58104;52.744;15.242;2023-02-19T02:11:07;100514.25;;;18.46;45.99
70555;BME280;58104;52.744;15.242;2023-02-19T02:13:33;100509.82;;;18.40;46.03
70555;BME280;58104;52.744;15.242;2023-02-19T02:16:07;100514.11;;;18.35;46.15
70555;BME280;58104;52.744;15.242;2023-02-19T02:18:30;100511.17;;;18.35;46.09
70555;BME280;58104;52.744;15.242;2023-02-19T02:21:03;100508.82;;;18.33;46.00
70555;BME280;58104;52.744;15.242;2023-02-19T02:23:19;100506.37;;;18.44;45.86
70555;BME280;58104;52.744;15.242;2023-02-19T02:25:51;100507.09;;;18.37;45.95
70555;BME280;58104;52.744;15.242;2023-02-19T02:28:19;100501.92;;;18.37;46.01
70555;BME280;58104;52.744;15.242;2023-02-19T02:30:36;100499.09;;;18.31;46.09
70555;BME280;58104;52.744;15.242;2023-02-19T02:33:02;100490.66;;;18.31;46.09
70555;BME280;58104;52.744;15.242;2023-02-19T02:35:24;100485.63;;;18.38;46.04
70555;BME280;58104;52.744;15.242;2023-02-19T02:37:47;100482.45;;;18.31;45.99
70555;BME280;58104;52.744;15.242;2023-02-19T02:40:13;100481.99;;;18.29;46.15
70555;BME280;58104;52.744;15.242;2023-02-19T02:42:39;100474.10;;;18.28;46.05
70555;BME280;58104;52.744;15.242;2023-02-19T02:47:30;100474.46;;;18.25;46.22
70555;BME280;58104;52.744;15.242;2023-02-19T02:49:55;100471.55;;;18.31;46.18
70555;BME280;58104;52.744;15.242;2023-02-19T02:52:20;100462.30;;;18.32;46.48
70555;BME280;58104;52.744;15.242;2023-02-19T02:54:45;100466.21;;;18.27;46.51
70555;BME280;58104;52.744;15.242;2023-02-19T02:57:12;100464.82;;;18.29;46.56
70555;BME280;58104;52.744;15.242;2023-02-19T02:59:38;100468.96;;;18.32;46.50
70555;BME280;58104;52.744;15.242;2023-02-19T03:02:04;100466.11;;;18.34;46.48
70555;BME280;58104;52.744;15.242;2023-02-19T03:04:31;100467.64;;;18.34;46.40
70555;BME280;58104;52.744;15.242;2023-02-19T03:06:53;100475.50;;;18.36;46.29
70555;BME280;58104;52.744;15.242;2023-02-19T03:09:21;100466.61;;;18.31;46.39
70555;BME280;58104;52.744;15.242;2023-02-19T03:11:45;100465.58;;;18.35;46.30
70555;BME280;58104;52.744;15.242;2023-02-19T03:14:13;100469.04;;;18.28;46.52
70555;BME280;58104;52.744;15.242;2023-02-19T03:16:36;100464.62;;;18.29;46.56
70555;BME280;58104;52.744;15.242;2023-02-19T03:18:59;100465.40;;;18.19;46.58
70555;BME280;58104;52.744;15.242;2023-02-19T03:21:26;100468.56;;;18.21;46.52
70555;BME280;58104;52.744;15.242;2023-02-19T03:23:51;100470.85;;;18.21;46.63
70555;BME280;58104;52.744;15.242;2023-02-19T03:26:16;100474.15;;;18.24;46.54
70555;BME280;58104;52.744;15.242;2023-02-19T03:28:42;100480.97;;;18.19;46.50
70555;BME280;58104;52.744;15.242;2023-02-19T03:31:08;100482.82;;;18.22;46.49
70555;BME280;58104;52.744;15.242;2023-02-19T03:33:32;100479.94;;;18.17;46.64
70555;BME280;58104;52.744;15.242;2023-02-19T03:36:00;100482.00;;;18.16;46.61
70555;BME280;58104;52.744;15.242;2023-02-19T03:38:26;100486.77;;;18.23;46.68
70555;BME280;58104;52.744;15.242;2023-02-19T03:40:55;100485.62;;;18.23;46.65
70555;BME280;58104;52.744;15.242;2023-02-19T03:43:18;100481.91;;;18.27;46.59
70555;BME280;58104;52.744;15.242;2023-02-19T03:45:46;100480.80;;;18.24;46.68
70555;BME280;58104;52.744;15.242;2023-02-19T03:48:15;100479.89;;;18.29;46.50
70555;BME280;58104;52.744;15.242;2023-02-19T03:50:35;100480.77;;;18.29;46.39
70555;BME280;58104;52.744;15.242;2023-02-19T03:53:00;100477.86;;;18.38;46.17
70555;BME280;58104;52.744;15.242;2023-02-19T03:55:27;100476.73;;;18.39;46.25
70555;BME280;58104;52.744;15.242;2023-02-19T03:57:50;100478.17;;;18.39;46.23
70555;BME280;58104;52.744;15.242;2023-02-19T04:00:16;100476.19;;;18.34;45.97
70555;BME280;58104;52.744;15.242;2023-02-19T04:02:41;100465.89;;;18.37;45.97
70555;BME280;58104;52.744;15.242;2023-02-19T04:05:08;100466.64;;;18.42;45.96
70555;BME280;58104;52.744;15.242;2023-02-19T04:07:29;100460.80;;;18.32;46.10
70555;BME280;58104;52.744;15.242;2023-02-19T04:09:53;100464.14;;;18.28;46.43
70555;BME280;58104;52.744;15.242;2023-02-19T04:12:20;100472.18;;;18.24;46.56
70555;BME280;58104;52.744;15.242;2023-02-19T04:14:48;100480.34;;;18.15;46.90
70555;BME280;58104;52.744;15.242;2023-02-19T04:17:15;100483.95;;;18.12;47.07
70555;BME280;58104;52.744;15.242;2023-02-19T04:19:36;100486.11;;;18.23;46.78
70555;BME280;58104;52.744;15.242;2023-02-19T04:22:01;100480.92;;;18.13;47.05
70555;BME280;58104;52.744;15.242;2023-02-19T04:24:30;100487.45;;;18.27;46.94
70555;BME280;58104;52.744;15.242;2023-02-19T04:26:51;100488.90;;;18.23;47.06
70555;BME280;58104;52.744;15.242;2023-02-19T04:29:17;100491.90;;;18.29;46.88
70555;BME280;58104;52.744;15.242;2023-02-19T04:31:42;100493.51;;;18.31;47.03
70555;BME280;58104;52.744;15.242;2023-02-19T04:34:08;100487.58;;;18.26;46.99
70555;BME280;58104;52.744;15.242;2023-02-19T04:36:33;100490.44;;;18.21;46.96
70555;BME280;58104;52.744;15.242;2023-02-19T04:38:58;100495.06;;;18.30;46.99
70555;BME280;58104;52.744;15.242;2023-02-19T04:41:24;100493.67;;;18.31;46.94
70555;BME280;58104;52.744;15.242;2023-02-19T04:43:49;100485.79;;;18.33;46.85
70555;BME280;58104;52.744;15.242;2023-02-19T04:46:15;100490.92;;;18.31;46.93
70555;BME280;58104;52.744;15.242;2023-02-19T04:48:40;100494.77;;;18.25;47.05
70555;BME280;58104;52.744;15.242;2023-02-19T04:51:06;100491.21;;;18.28;46.94
70555;BME280;58104;52.744;15.242;2023-02-19T04:53:31;100486.18;;;18.22;47.11
70555;BME280;58104;52.744;15.242;2023-02-19T04:55:56;100481.71;;;18.27;47.04
70555;BME280;58104;52.744;15.242;2023-02-19T04:58:22;100481.92;;;18.17;46.90
70555;BME280;58104;52.744;15.242;2023-02-19T05:00:51;100478.73;;;18.26;46.76
70555;BME280;58104;52.744;15.242;2023-02-19T05:03:12;100474.08;;;18.25;46.79
70555;BME280;58104;52.744;15.242;2023-02-19T05:05:38;100468.67;;;18.25;46.74
70555;BME280;58104;52.744;15.242;2023-02-19T05:08:03;100467.80;;;18.23;46.80
70555;BME280;58104;52.744;15.242;2023-02-19T05:10:28;100458.81;;;18.23;46.75
70555;BME280;58104;52.744;15.242;2023-02-19T05:12:54;100455.16;;;18.25;46.66
70555;BME280;58104;52.744;15.242;2023-02-19T05:15:19;100455.16;;;18.23;46.76
70555;BME280;58104;52.744;15.242;2023-02-19T05:17:44;100454.75;;;18.26;46.79
70555;BME280;58104;52.744;15.242;2023-02-19T05:20:10;100453.47;;;18.29;46.90
70555;BME280;58104;52.744;15.242;2023-02-19T05:22:35;100455.67;;;18.31;46.82
70555;BME280;58104;52.744;15.242;2023-02-19T05:25:01;100456.00;;;18.30;46.84
70555;BME280;58104;52.744;15.242;2023-02-19T05:27:26;100458.25;;;18.30;46.80
70555;BME280;58104;52.744;15.242;2023-02-19T05:29:52;100459.91;;;18.30;46.77
70555;BME280;58104;52.744;15.242;2023-02-19T05:34:42;100464.90;;;18.31;46.69
70555;BME280;58104;52.744;15.242;2023-02-19T05:37:08;100469.59;;;18.26;46.81
70555;BME280;58104;52.744;15.242;2023-02-19T05:39:33;100469.74;;;18.31;46.66
70555;BME280;58104;52.744;15.242;2023-02-19T05:41:59;100474.11;;;18.30;46.68
70555;BME280;58104;52.744;15.242;2023-02-19T05:44:24;100475.32;;;18.32;46.86
70555;BME280;58104;52.744;15.242;2023-02-19T05:46:50;100486.38;;;18.21;47.08
70555;BME280;58104;52.744;15.242;2023-02-19T05:49:15;100492.85;;;18.15;47.12
70555;BME280;58104;52.744;15.242;2023-02-19T05:51:40;100492.15;;;18.09;47.25
70555;BME280;58104;52.744;15.242;2023-02-19T05:54:06;100496.31;;;18.15;47.05
70555;BME280;58104;52.744;15.242;2023-02-19T05:56:33;100498.49;;;18.17;46.98
70555;BME280;58104;52.744;15.242;2023-02-19T05:58:57;100499.26;;;18.13;47.07
70555;BME280;58104;52.744;15.242;2023-02-19T06:01:24;100505.28;;;18.11;47.18
70555;BME280;58104;52.744;15.242;2023-02-19T06:03:48;100506.54;;;18.17;47.29
70555;BME280;58104;52.744;15.242;2023-02-19T06:06:14;100509.04;;;18.21;47.38
70555;BME280;58104;52.744;15.242;2023-02-19T06:08:38;100514.82;;;18.19;47.59
70555;BME280;58104;52.744;15.242;2023-02-19T06:11:04;100515.23;;;18.14;47.65
70555;BME280;58104;52.744;15.242;2023-02-19T06:13:29;100520.29;;;18.14;47.80
70555;BME280;58104;52.744;15.242;2023-02-19T06:15:55;100519.49;;;18.15;47.91
70555;BME280;58104;52.744;15.242;2023-02-19T06:18:20;100518.49;;;18.17;47.97
70555;BME280;58104;52.744;15.242;2023-02-19T06:20:46;100519.16;;;18.13;48.17
70555;BME280;58104;52.744;15.242;2023-02-19T06:25:36;100524.48;;;18.12;48.39
70555;BME280;58104;52.744;15.242;2023-02-19T06:28:02;100532.77;;;18.13;48.52
70555;BME280;58104;52.744;15.242;2023-02-19T06:30:27;100537.22;;;18.19;48.53
70555;BME280;58104;52.744;15.242;2023-02-19T06:32:53;100538.22;;;18.13;48.69
70555;BME280;58104;52.744;15.242;2023-02-19T06:35:18;100539.14;;;18.10;48.90
70555;BME280;58104;52.744;15.242;2023-02-19T06:37:45;100543.39;;;18.17;48.85
70555;BME280;58104;52.744;15.242;2023-02-19T06:40:09;100545.14;;;18.14;48.93
70555;BME280;58104;52.744;15.242;2023-02-19T06:42:34;100548.56;;;18.13;48.83
70555;BME280;58104;52.744;15.242;2023-02-19T06:45:00;100552.17;;;18.14;48.89
70555;BME280;58104;52.744;15.242;2023-02-19T06:47:27;100556.19;;;18.00;49.11
70555;BME280;58104;52.744;15.242;2023-02-19T06:49:51;100558.22;;;18.08;49.06
70555;BME280;58104;52.744;15.242;2023-02-19T06:52:16;100559.94;;;18.08;49.26
70555;BME280;58104;52.744;15.242;2023-02-19T06:54:41;100562.54;;;18.04;49.41
70555;BME280;58104;52.744;15.242;2023-02-19T06:57:07;100565.95;;;18.00;49.53
70555;BME280;58104;52.744;15.242;2023-02-19T06:59:32;100566.65;;;17.95;49.51
70555;BME280;58104;52.744;15.242;2023-02-19T07:01:58;100569.82;;;18.00;49.48
70555;BME280;58104;52.744;15.242;2023-02-19T07:04:23;100568.59;;;18.06;49.72
70555;BME280;58104;52.744;15.242;2023-02-19T07:06:49;100568.19;;;18.19;49.37
70555;BME280;58104;52.744;15.242;2023-02-19T07:09:14;100570.61;;;18.22;49.23
70555;BME280;58104;52.744;15.242;2023-02-19T07:11:39;100573.15;;;18.22;49.28
70555;BME280;58104;52.744;15.242;2023-02-19T07:14:09;100568.40;;;18.22;49.37
70555;BME280;58104;52.744;15.242;2023-02-19T07:16:30;100570.76;;;18.20;49.30
70555;BME280;58104;52.744;15.242;2023-02-19T07:18:56;100576.62;;;18.26;49.21
70555;BME280;58104;52.744;15.242;2023-02-19T07:21:21;100579.91;;;18.48;48.84
70555;BME280;58104;52.744;15.242;2023-02-19T07:23:47;100585.86;;;18.59;48.76
70555;BME280;58104;52.744;15.242;2023-02-19T07:26:14;100592.33;;;18.55;48.81
70555;BME280;58104;52.744;15.242;2023-02-19T07:28:39;100599.25;;;18.55;48.65
70555;BME280;58104;52.744;15.242;2023-02-19T07:31:03;100602.55;;;18.59;48.54
70555;BME280;58104;52.744;15.242;2023-02-19T07:33:28;100611.94;;;18.61;48.36
70555;BME280;58104;52.744;15.242;2023-02-19T07:35:53;100620.42;;;18.65;48.33
70555;BME280;58104;52.744;15.242;2023-02-19T07:38:20;100626.92;;;18.73;48.36
70555;BME280;58104;52.744;15.242;2023-02-19T07:40:49;100631.02;;;18.65;48.18
70555;BME280;58104;52.744;15.242;2023-02-19T07:43:10;100633.21;;;18.78;48.21
70555;BME280;58104;52.744;15.242;2023-02-19T07:45:35;100633.14;;;18.68;48.23
70555;BME280;58104;52.744;15.242;2023-02-19T07:48:00;100630.59;;;18.71;48.07
70555;BME280;58104;52.744;15.242;2023-02-19T07:50:26;100639.00;;;18.66;48.17
70555;BME280;58104;52.744;15.242;2023-02-19T07:52:51;100637.58;;;18.66;48.37
70555;BME280;58104;52.744;15.242;2023-02-19T07:55:17;100634.51;;;18.67;48.42
70555;BME280;58104;52.744;15.242;2023-02-19T07:57:42;100630.22;;;18.61;48.37
70555;BME280;58104;52.744;15.242;2023-02-19T08:00:09;100641.18;;;18.58;47.77
70555;BME280;58104;52.744;15.242;2023-02-19T08:02:33;100642.50;;;18.69;47.61
70555;BME280;58104;52.744;15.242;2023-02-19T08:04:58;100644.48;;;18.78;47.59
70555;BME280;58104;52.744;15.242;2023-02-19T08:07:24;100645.13;;;18.99;46.84
70555;BME280;58104;52.744;15.242;2023-02-19T08:09:49;100644.92;;;18.94;46.56
70555;BME280;58104;52.744;15.242;2023-02-19T08:12:15;100649.24;;;19.09;46.51
70555;BME280;58104;52.744;15.242;2023-02-19T08:14:40;100647.95;;;19.18;46.64
70555;BME280;58104;52.744;15.242;2023-02-19T08:17:05;100647.04;;;19.06;46.71
70555;BME280;58104;52.744;15.242;2023-02-19T08:19:31;100654.60;;;19.21;46.92
70555;BME280;58104;52.744;15.242;2023-02-19T08:21:56;100655.00;;;19.26;46.54
70555;BME280;58104;52.744;15.242;2023-02-19T08:24:22;100659.14;;;19.31;46.40
70555;BME280;58104;52.744;15.242;2023-02-19T08:26:47;100672.66;;;19.37;46.51
70555;BME280;58104;52.744;15.242;2023-02-19T08:29:12;100680.24;;;19.34;46.50
70555;BME280;58104;52.744;15.242;2023-02-19T08:31:38;100680.03;;;19.47;46.49
70555;BME280;58104;52.744;15.242;2023-02-19T08:34:03;100686.44;;;19.58;46.51
70555;BME280;58104;52.744;15.242;2023-02-19T08:36:29;100685.40;;;19.56;45.67
70555;BME280;58104;52.744;15.242;2023-02-19T08:38:54;100691.66;;;19.48;46.77
70555;BME280;58104;52.744;15.242;2023-02-19T08:41:19;100693.41;;;19.02;43.15
70555;BME280;58104;52.744;15.242;2023-02-19T08:43:45;100696.70;;;18.94;41.54
70555;BME280;58104;52.744;15.242;2023-02-19T08:46:10;100698.95;;;18.68;41.19
70555;BME280;58104;52.744;15.242;2023-02-19T08:48:36;100701.41;;;18.69;39.71
70555;BME280;58104;52.744;15.242;2023-02-19T08:51:03;100707.12;;;18.71;39.83
70555;BME280;58104;52.744;15.242;2023-02-19T08:53:26;100710.72;;;17.10;38.52
70555;BME280;58104;52.744;15.242;2023-02-19T08:55:52;100708.40;;;16.69;39.60
70555;BME280;58104;52.744;15.242;2023-02-19T08:58:17;100718.98;;;16.61;39.00
70555;BME280;58104;52.744;15.242;2023-02-19T09:03:08;100741.77;;;16.61;40.94
70555;BME280;58104;52.744;15.242;2023-02-19T09:05:33;100740.60;;;17.17;41.14
70555;BME280;58104;52.744;15.242;2023-02-19T09:07:59;100747.12;;;17.42;39.90
70555;BME280;58104;52.744;15.242;2023-02-19T09:10:24;100751.38;;;17.35;39.01
70555;BME280;58104;52.744;15.242;2023-02-19T09:12:50;100764.57;;;17.69;38.56
70555;BME280;58104;52.744;15.242;2023-02-19T09:15:15;100757.40;;;17.65;37.95
70555;BME280;58104;52.744;15.242;2023-02-19T09:17:41;100766.20;;;17.36;38.48
70555;BME280;58104;52.744;15.242;2023-02-19T09:20:07;100774.75;;;17.36;38.30
70555;BME280;58104;52.744;15.242;2023-02-19T09:22:31;100775.32;;;17.54;37.57
70555;BME280;58104;52.744;15.242;2023-02-19T09:24:57;100775.66;;;17.54;37.52
70555;BME280;58104;52.744;15.242;2023-02-19T09:27:22;100785.39;;;17.72;37.23
70555;BME280;58104;52.744;15.242;2023-02-19T09:29:48;100785.44;;;17.46;36.00
70555;BME280;58104;52.744;15.242;2023-02-19T09:32:13;100793.90;;;17.20;37.71
70555;BME280;58104;52.744;15.242;2023-02-19T09:34:39;100800.41;;;17.35;37.03
70555;BME280;58104;52.744;15.242;2023-02-19T09:37:04;100800.24;;;17.37;36.84
70555;BME280;58104;52.744;15.242;2023-02-19T09:39:29;100804.42;;;17.60;37.16
70555;BME280;58104;52.744;15.242;2023-02-19T09:41:57;100813.89;;;18.01;36.24
70555;BME280;58104;52.744;15.242;2023-02-19T09:44:24;100812.40;;;17.99;36.23
70555;BME280;58104;52.744;15.242;2023-02-19T09:46:48;100815.83;;;17.93;36.08
70555;BME280;58104;52.744;15.242;2023-02-19T09:49:14;100816.86;;;17.75;35.82
70555;BME280;58104;52.744;15.242;2023-02-19T09:51:40;100821.99;;;17.98;34.89
70555;BME280;58104;52.744;15.242;2023-02-19T09:54:05;100819.39;;;18.17;36.06
70555;BME280;58104;52.744;15.242;2023-02-19T09:56:28;100812.68;;;18.07;35.96
70555;BME280;58104;52.744;15.242;2023-02-19T09:58:55;100816.30;;;17.87;35.24
70555;BME280;58104;52.744;15.242;2023-02-19T10:01:19;100815.46;;;17.88;35.43
70555;BME280;58104;52.744;15.242;2023-02-19T10:03:46;100816.90;;;17.54;34.75
70555;BME280;58104;52.744;15.242;2023-02-19T10:06:15;100818.37;;;17.62;35.36
70555;BME280;58104;52.744;15.242;2023-02-19T10:08:35;100829.21;;;17.65;35.39
70555;BME280;58104;52.744;15.242;2023-02-19T10:11:02;100830.60;;;17.79;35.27
70555;BME280;58104;52.744;15.242;2023-02-19T10:13:30;100829.15;;;18.02;35.24
70555;BME280;58104;52.744;15.242;2023-02-19T10:15:53;100832.69;;;17.85;34.76
70555;BME280;58104;52.744;15.242;2023-02-19T10:18:19;100832.44;;;17.91;34.91
70555;BME280;58104;52.744;15.242;2023-02-19T10:20:42;100838.04;;;18.20;35.49
70555;BME280;58104;52.744;15.242;2023-02-19T10:23:10;100838.29;;;18.12;34.07
70555;BME280;58104;52.744;15.242;2023-02-19T10:25:34;100838.36;;;18.13;34.30
70555;BME280;58104;52.744;15.242;2023-02-19T10:27:59;100845.43;;;18.20;34.63
70555;BME280;58104;52.744;15.242;2023-02-19T10:30:28;100847.39;;;18.33;33.45
70555;BME280;58104;52.744;15.242;2023-02-19T10:32:58;100853.44;;;17.65;33.57
70555;BME280;58104;52.744;15.242;2023-02-19T10:35:15;100862.64;;;17.95;33.63
70555;BME280;58104;52.744;15.242;2023-02-19T10:37:43;100863.65;;;17.89;33.74
70555;BME280;58104;52.744;15.242;2023-02-19T10:42:31;100876.17;;;18.24;34.59
70555;BME280;58104;52.744;15.242;2023-02-19T10:44:58;100880.06;;;18.22;34.39
70555;BME280;58104;52.744;15.242;2023-02-19T10:47:24;100878.62;;;18.01;34.92
70555;BME280;58104;52.744;15.242;2023-02-19T10:49:49;100880.00;;;18.38;34.95
70555;BME280;58104;52.744;15.242;2023-02-19T10:52:14;100880.86;;;17.25;34.47
70555;BME280;58104;52.744;15.242;2023-02-19T10:54:38;100890.69;;;17.56;35.92
70555;BME280;58104;52.744;15.242;2023-02-19T10:59:29;100893.40;;;17.69;31.93
70555;BME280;58104;52.744;15.242;2023-02-19T11:01:56;100894.79;;;17.14;33.80
70555;BME280;58104;52.744;15.242;2023-02-19T11:04:19;100908.23;;;17.31;33.47
70555;BME280;58104;52.744;15.242;2023-02-19T11:06:46;100918.31;;;17.36;32.91
70555;BME280;58104;52.744;15.242;2023-02-19T11:09:23;100919.94;;;17.30;32.51
70555;BME280;58104;52.744;15.242;2023-02-19T11:11:37;100922.20;;;17.34;32.75
70555;BME280;58104;52.744;15.242;2023-02-19T11:14:04;100921.57;;;17.72;31.61
70555;BME280;58104;52.744;15.242;2023-02-19T11:18:53;100928.05;;;17.75;31.44
70555;BME280;58104;52.744;15.242;2023-02-19T11:21:24;100929.64;;;17.45;31.65
70555;BME280;58104;52.744;15.242;2023-02-19T11:23:44;100930.57;;;17.29;31.54
70555;BME280;58104;52.744;15.242;2023-02-19T11:26:18;100929.89;;;17.47;31.05
70555;BME280;58104;52.744;15.242;2023-02-19T11:28:35;100939.56;;;17.46;31.06
70555;BME280;58104;52.744;15.242;2023-02-19T11:33:26;100933.17;;;17.45;30.66
70555;BME280;58104;52.744;15.242;2023-02-19T11:35:52;100927.74;;;17.36;31.34
70555;BME280;58104;52.744;15.242;2023-02-19T11:38:17;100937.11;;;17.41;31.28
70555;BME280;58104;52.744;15.242;2023-02-19T11:40:44;100950.38;;;17.62;30.56
70555;BME280;58104;52.744;15.242;2023-02-19T11:43:20;100948.07;;;17.55;30.43
70555;BME280;58104;52.744;15.242;2023-02-19T11:45:37;100947.51;;;17.67;30.52
70555;BME280;58104;52.744;15.242;2023-02-19T11:48:09;100945.58;;;17.80;30.40
70555;BME280;58104;52.744;15.242;2023-02-19T11:50:26;100947.70;;;17.82;30.50
70555;BME280;58104;52.744;15.242;2023-02-19T11:52:56;100951.73;;;18.21;31.00
70555;BME280;58104;52.744;15.242;2023-02-19T11:55:20;100954.64;;;18.06;30.55
70555;BME280;58104;52.744;15.242;2023-02-19T11:57:41;100957.42;;;17.80;30.50
70555;BME280;58104;52.744;15.242;2023-02-19T12:02:45;100958.72;;;17.64;30.33
70555;BME280;58104;52.744;15.242;2023-02-19T12:05:06;100968.00;;;17.84;30.25
70555;BME280;58104;52.744;15.242;2023-02-19T12:07:33;100972.42;;;18.10;29.85
70555;BME280;58104;52.744;15.242;2023-02-19T12:09:57;100978.54;;;18.65;29.41
70555;BME280;58104;52.744;15.242;2023-02-19T12:12:23;100984.69;;;19.09;29.14
70555;BME280;58104;52.744;15.242;2023-02-19T12:17:09;100990.20;;;19.25;28.39
70555;BME280;58104;52.744;15.242;2023-02-19T12:19:38;100994.62;;;18.73;29.32
70555;BME280;58104;52.744;15.242;2023-02-19T12:22:04;100995.18;;;18.44;30.30
70555;BME280;58104;52.744;15.242;2023-02-19T12:24:33;100995.50;;;18.21;30.80
70555;BME280;58104;52.744;15.242;2023-02-19T12:26:53;100996.46;;;18.16;30.56
70555;BME280;58104;52.744;15.242;2023-02-19T12:29:21;100991.72;;;18.17;29.87
70555;BME280;58104;52.744;15.242;2023-02-19T12:34:15;100997.66;;;18.25;29.53
70555;BME280;58104;52.744;15.242;2023-02-19T12:36:33;101001.11;;;18.26;29.18
70555;BME280;58104;52.744;15.242;2023-02-19T12:38:58;101004.33;;;18.76;29.07
70555;BME280;58104;52.744;15.242;2023-02-19T12:41:24;101000.31;;;19.37;28.29
70555;BME280;58104;52.744;15.242;2023-02-19T12:43:49;100992.22;;;19.59;27.66
70555;BME280;58104;52.744;15.242;2023-02-19T12:46:12;101003.11;;;19.83;27.86
70555;BME280;58104;52.744;15.242;2023-02-19T12:48:37;101007.74;;;20.02;27.71
70555;BME280;58104;52.744;15.242;2023-02-19T12:51:04;101000.67;;;20.30;27.85
70555;BME280;58104;52.744;15.242;2023-02-19T12:53:32;101007.22;;;20.41;27.30
70555;BME280;58104;52.744;15.242;2023-02-19T12:55:51;101003.38;;;20.40;28.35
70555;BME280;58104;52.744;15.242;2023-02-19T12:58:22;100992.07;;;20.54;27.75
70555;BME280;58104;52.744;15.242;2023-02-19T13:00:45;101006.32;;;20.63;27.06